KVYS/VYS METAR and TAF weather

Enter ICAO airport designator
Station Type Date Time Source
KVYS METAR 2019/05/26 22:55 UTC NOAA

KVYS 262255Z AUTO 31010KT 10SM SCT036 SCT060 24/16 A3004 RMK AO2 T02360156


Station Type Date Time Source
KVYS Decoded METAR 2019/05/26 22:55 UTC NOAA

Peru, Illinois Valley Regional-Walter A Duncan Field Airport, IL, United States (KVYS) 41-21-07N 089-09-11W
May 26, 2019 - 06:55 PM EDT / 2019.05.26 2255 UTC
Wind: from the NW (310 degrees) at 12 MPH (10 KT):0
Visibility: 10 mile(s):0
Sky conditions: partly cloudy
Temperature: 74.5 F (23.6 C)
Dew Point: 60.1 F (15.6 C)
Relative Humidity: 60%
Pressure (altimeter): 30.04 in. Hg (1017 hPa)
ob: KVYS 262255Z AUTO 31010KT 10SM SCT036 SCT060 24/16 A3004 RMK AO2 T02360156
cycle: 23

Station Type Date Time Source
KVYS TAF UTC NOAA

Error!

Example: see airport list